Data for 04/06/2014

Time Sea-Level Adjusted Pressure Absolute Pressure Temperature Relative Humidity Dew Point   
(mb) (inHg) (mb) (inHg) (C) (F) (%) (C) (F)
00:05 1015 29.97 844 24.92 1.8 35.3 53 -6.8 19.8
00:10 1015 29.97 844 24.92 2.1 35.9 52 -6.8 19.7
00:15 1015 29.97 844 24.92 2.1 35.8 52 -6.8 19.8
00:20 1015 29.97 844 24.92 2 35.7 54 -6.3 20.6
00:25 1015 29.97 844 24.92 2 35.6 53 -6.6 20.1
00:30 1015 29.97 844 24.92 2 35.6 53 -6.5 20.2
00:35 1015 29.97 844 24.92 2 35.6 54 -6.4 20.5
00:40 1015 29.97 844 24.92 2 35.5 55 -6.2 20.8
00:45 1015 29.97 844 24.92 1.9 35.5 56 -6 21.2
00:50 1015 29.97 844 24.92 2 35.5 55 -6.2 20.8
00:55 1015 29.97 844 24.92 2 35.7 56 -5.8 21.5
01:00 1015 29.97 844 24.92 1.9 35.5 54 -6.4 20.5
01:05 1015 29.97 844 24.92 2 35.6 55 -6.2 20.8
01:10 1015 29.97 844 24.92 2.1 35.8 55 -6 21.3
01:15 1015 29.97 844 24.92 2.1 35.8 53 -6.5 20.3
01:20 1015 29.97 844 24.92 2.2 35.9 54 -6.3 20.7
01:25 1015 29.97 844 24.92 2.2 36 53 -6.5 20.4
01:30 1015 29.97 844 24.92 2.3 36.1 53 -6.3 20.6
01:35 1015 29.97 844 24.92 2.3 36.2 51 -6.8 19.8
01:40 1015 29.97 844 24.92 2.4 36.4 51 -6.6 20.1
01:45 1015 29.97 844 24.92 2.5 36.5 51 -6.7 19.9
01:50 1015 29.97 844 24.92 2.6 36.6 51 -6.7 20
01:55 1015 29.97 844 24.92 2.6 36.7 51 -6.6 20.2
02:00 1015 29.97 844 24.92 2.6 36.7 51 -6.6 20.2
02:05 1015 29.97 844 24.92 2.6 36.6 51 -6.4 20.4
02:10 1015 29.97 844 24.92 2.5 36.5 52 -6.3 20.7
02:15 1015 29.97 844 24.92 2.4 36.3 53 -6.2 20.8
02:20 1015 29.97 844 24.92 2.4 36.4 50 -6.9 19.6
02:25 1015 29.97 844 24.92 2.7 36.9 50 -6.6 20.1
02:30 1015 29.97 844 24.92 2.9 37.1 49 -6.7 19.9
02:35 1015 29.97 844 24.92 3 37.4 49 -6.6 20.1
02:40 1015 29.97 844 24.92 3.1 37.6 48 -6.7 19.9
02:45 1015 29.97 844 24.92 3.2 37.7 48 -6.7 20
02:50 1015 29.97 844 24.92 3.2 37.8 49 -6.6 20.2
02:55 1015 29.97 844 24.92 3.3 37.9 49 -6.5 20.4
03:00 1015 29.97 844 24.92 3.3 37.9 50 -6.3 20.7
03:05 1015 29.97 844 24.92 3.2 37.8 50 -6.1 21
03:10 1015 29.97 844 24.92 3.2 37.8 51 -6 21.2
03:15 1015 29.97 844 24.92 3.2 37.8 51 -6 21.3
03:20 1015 29.97 844 24.92 3.1 37.6 52 -5.7 21.7
03:25 1015 29.97 844 24.92 3 37.5 53 -5.7 21.8
03:30 1015 29.97 844 24.92 3 37.4 53 -5.6 21.9
03:35 1015 29.97 844 24.92 3 37.4 53 -5.6 21.9
03:40 1015 29.97 844 24.92 2.9 37.2 53 -5.7 21.7
03:45 1015 29.97 844 24.92 2.9 37.2 54 -5.5 22.1
03:50 1015 29.97 844 24.92 2.8 37.1 55 -5.3 22.5
03:55 1015 29.97 844 24.92 2.7 36.9 54 -5.6 22
04:00 1015 29.97 844 24.92 2.8 37.1 54 -5.6 21.9
04:05 1015 29.97 844 24.92 3 37.4 53 -5.8 21.6
04:10 1015 29.97 844 24.92 3.2 37.7 51 -6 21.2
04:15 1015 29.97 844 24.92 3.4 38.1 49 -6.2 20.8
04:20 1015 29.97 844 24.92 3.5 38.3 51 -5.8 21.5
04:25 1015 29.97 844 24.92 3.4 38.1 50 -6 21.2
04:30 1015 29.97 844 24.92 3.5 38.3 50 -6 21.2
04:35 1015 29.97 844 24.92 3.5 38.3 50 -6 21.2
04:40 1015 29.97 844 24.92 3.5 38.3 51 -5.8 21.6
04:45 1015 29.97 844 24.92 3.4 38.1 52 -5.6 22
04:50 1015 29.97 844 24.92 3.1 37.5 53 -5.6 21.9
04:55 1015 29.97 844 24.92 3 37.5 52 -5.8 21.6
05:00 1015 29.97 844 24.92 3.2 37.7 52 -5.8 21.6
05:05 1015 29.97 844 24.92 3.4 38.1 49 -6.2 20.8
05:10 1015 29.97 844 24.92 3.7 38.6 49 -6 21.2
05:15 1015 29.97 844 24.92 3.7 38.7 50 -5.8 21.6
05:20 1015 29.97 844 24.92 3.7 38.6 50 -5.7 21.8
05:25 1015 29.97 844 24.92 3.7 38.6 51 -5.5 22.1
05:30 1015 29.97 844 24.92 3.7 38.6 51 -5.4 22.2
05:35 1015 29.97 844 24.92 3.7 38.6 51 -5.4 22.2
05:40 1015 29.97 844 24.92 3.7 38.6 52 -5.3 22.4
05:45 1015 29.97 844 24.92 3.6 38.6 52 -5.4 22.4
05:50 1015 29.97 844 24.92 3.7 38.7 51 -5.4 22.3
05:55 1015 29.97 844 24.92 3.7 38.7 52 -5.3 22.4
06:00 1015 29.97 844 24.92 3.6 38.5 51 -5.5 22.2
06:05 1015 29.97 844 24.92 3.6 38.5 52 -5.4 22.3
06:10 1015 29.97 844 24.92 3.6 38.4 52 -5.5 22.1
06:15 1015 29.97 844 24.92 3.6 38.4 51 -5.6 22
06:20 1015 29.97 844 24.92 3.6 38.5 51 -5.6 22
06:25 1015 29.97 844 24.92 3.7 38.6 51 -5.6 22
06:30 1015 29.97 844 24.92 3.7 38.7 51 -5.6 21.9
06:35 1015 29.97 844 24.92 3.8 38.9 50 -5.7 21.7
06:40 1015 29.97 844 24.92 3.9 39.1 49 -5.9 21.4
06:45 1015 29.97 844 24.92 4.1 39.3 48 -6.1 21.1
06:50 1015 29.97 844 24.92 4.1 39.5 48 -6 21.3
06:55 1015 29.97 844 24.92 4.1 39.5 50 -5.5 22.2
07:00 1015 29.97 844 24.92 4.3 39.8 47 -6 21.2
07:05 1015 29.97 844 24.92 4.3 39.8 49 -5.6 22
07:10 1015 29.97 844 24.92 4.1 39.4 50 -5.3 22.4
07:15 1015 29.97 844 24.92 4 39.3 50 -5.3 22.4
07:20 1015 29.97 844 24.92 4 39.3 51 -5.2 22.6
07:25 1015 29.97 844 24.92 4.1 39.3 51 -5.2 22.7
07:30 1015 29.97 844 24.92 4.1 39.4 52 -5 23
07:35 1015 29.97 844 24.92 4.2 39.6 50 -5.3 22.5
07:40 1015 29.97 844 24.92 4.6 40.2 49 -5.3 22.5
07:45 1015 29.97 844 24.92 4.7 40.5 49 -5.1 22.9
07:50 1015 29.97 844 24.92 4.6 40.3 48 -5.3 22.4
07:55 1015 29.97 844 24.92 4.8 40.7 49 -5.1 22.8
08:00 1015 29.97 844 24.92 4.9 40.9 48 -5 22.9
08:05 1015 29.97 844 24.92 5 41 49 -4.9 23.2
08:10 1015 29.97 844 24.92 5.1 41.2 49 -4.7 23.6
08:15 1015 29.97 844 24.92 5 41 50 -4.6 23.7
08:20 1015 29.97 844 24.92 5.1 41.2 49 -4.7 23.5
08:25 1015 29.97 844 24.92 5.2 41.3 48 -4.9 23.1
08:30 1015 29.97 844 24.92 5.3 41.5 47 -5.1 22.8
08:35 1015 29.97 844 24.92 5.4 41.7 47 -5 22.9
08:40 1015 29.97 844 24.92 5.7 42.2 47 -4.9 23.2
08:45 1015 29.97 844 24.92 6.1 43 45 -4.8 23.4
08:50 1015 29.97 844 24.92 6.3 43.3 43 -5.2 22.6
08:55 1015 29.97 844 24.92 6.3 43.3 44 -5.1 22.9
09:00 1015 29.97 844 24.92 6.3 43.3 43 -5.4 22.4
09:05 1015 29.97 844 24.92 6.2 43.2 44 -5.1 22.8
09:10 1015 29.97 844 24.92 6.4 43.5 45 -4.7 23.5
09:15 1015 29.97 844 24.92 7 44.7 43 -4.6 23.7
09:20 1015 29.97 844 24.92 7.3 45.1 42 -4.8 23.4
09:25 1015 29.97 844 24.92 7.4 45.3 42 -4.7 23.5
09:30 1015 29.97 844 24.92 7.4 45.3 40 -5.4 22.3
09:35 1015 29.97 844 24.92 7.4 45.3 39 -5.5 22.1
09:40 1015 29.97 844 24.92 7.5 45.4 40 -5.3 22.5
09:45 1015 29.97 844 24.92 7.6 45.7 38 -5.9 21.4
09:50 1015 29.97 844 24.92 7.6 45.6 37 -6 21.2
09:55 1015 29.97 844 24.92 7.6 45.7 38 -5.6 21.9
10:00 1015 29.97 844 24.92 7.5 45.4 39 -5.4 22.2
10:05 1015 29.97 844 24.92 7.4 45.3 39 -5.6 21.9
10:10 1015 29.97 845 24.95 7.3 45.2 39 -5.8 21.5
10:15 1015 29.97 845 24.95 7.5 45.5 38 -5.9 21.4
10:20 1015 29.97 845 24.95 7.7 45.8 39 -5.4 22.2
10:25 1015 29.97 844 24.92 7.9 46.1 36 -6.3 20.7
10:30 1015 29.97 844 24.92 8 46.5 37 -5.6 21.8
10:35 1015 29.97 844 24.92 8.3 46.9 35 -6.3 20.7
10:40 1015 29.97 844 24.92 8.7 47.6 34 -6.3 20.6
10:45 1015 29.97 844 24.92 8.6 47.4 34 -6.3 20.7
10:50 1015 29.97 844 24.92 8.3 46.9 36 -6.1 21.1
10:55 1015 29.97 844 24.92 7.8 46 38 -5.8 21.6
11:00 1015 29.97 844 24.92 7.8 46.1 38 -5.5 22.1
11:05 1015 29.97 844 24.92 8.1 46.5 35 -6.4 20.5
11:10 1015 29.97 844 24.92 8.8 47.8 33 -6.5 20.2
11:15 1015 29.97 844 24.92 9.5 49.2 32 -6.5 20.3
11:20 1015 29.97 844 24.92 10 50 31 -6.4 20.5
11:25 1015 29.97 844 24.92 9.4 48.9 32 -6.5 20.3
11:30 1015 29.97 844 24.92 8.8 47.8 32 -6.9 19.5
11:35 1015 29.97 844 24.92 8.5 47.3 36 -5.7 21.7
11:40 1015 29.97 845 24.95 8 46.4 40 -4.9 23.2
11:45 1016 30 845 24.95 7.2 44.9 56 -0.9 30.5
11:50 1016 30 845 24.95 5.8 42.4 56 -2.3 27.9
11:55 1016 30 845 24.95 5.9 42.6 57 -1.9 28.5
12:00 1016 30 845 24.95 6.2 43.1 56 -1.9 28.5
12:05 1016 30 845 24.95 6.6 43.9 50 -3.1 26.4
12:10 1016 30 845 24.95 7.2 44.9 48 -3 26.5
12:15 1015 29.97 845 24.95 7.1 44.8 47 -3.5 25.7
12:20 1015 29.97 844 24.92 7.9 46.2 44 -3.5 25.8
12:25 1015 29.97 844 24.92 8 46.4 44 -3.5 25.7
12:30 1015 29.97 845 24.95 7.8 46 45 -3.5 25.7
12:35 1016 30 845 24.95 7.5 45.6 47 -2.9 26.8
12:40 1016 30 845 24.95 6.7 44.1 53 -2.3 27.8
12:45 1016 30 845 24.95 5.9 42.5 57 -2 28.4
12:50 1016 30 845 24.95 5.6 42.1 58 -2 28.3
12:55 1016 30 845 24.95 5.8 42.4 59 -1.7 29
13:00 1016 30 845 24.95 5.8 42.4 60 -1.5 29.4
13:05 1016 30 845 24.95 5.9 42.6 60 -1.3 29.6
13:10 1016 30 845 24.95 6.1 43 58 -1.5 29.3
13:15 1016 30 845 24.95 5.9 42.6 58 -1.7 29
13:20 1016 30 845 24.95 5 41 65 -1 30.2
13:25 1016 30 845 24.95 4.6 40.3 67 -1.1 30.1
13:30 1016 30 845 24.95 4.7 40.4 65 -1.3 29.6
13:35 1016 30 845 24.95 5 41.1 62 -1.5 29.2
13:40 1016 30 845 24.95 6.3 43.3 63 -0.2 31.7
13:45 1016 30 845 24.95 6.9 44.5 59 -0.5 31.1
13:50 1016 30 845 24.95 6.6 43.9 53 -2.4 27.7
13:55 1016 30 845 24.95 6.2 43.1 56 -1.9 28.6
14:00 1016 30 845 24.95 5.9 42.6 60 -1.3 29.6
14:05 1016 30 845 24.95 5.2 41.4 58 -2.2 28
14:10 1016 30 845 24.95 5.2 41.3 56 -2.9 26.7
14:15 1016 30 845 24.95 5.9 42.6 57 -2 28.5
14:20 1016 30 845 24.95 7 44.6 56 -1.3 29.7
14:25 1016 30 845 24.95 7.8 46.1 50 -1.9 28.6
14:30 1015 29.97 845 24.95 8.3 46.9 47 -2.5 27.6
14:35 1015 29.97 845 24.95 8.8 47.8 41 -3.8 25.1
14:40 1015 29.97 845 24.95 9.2 48.5 40 -3.7 25.3
14:45 1016 30 845 24.95 9.4 49 37 -4.5 23.9
14:50 1016 30 845 24.95 9.5 49.2 34 -5.6 22
14:55 1015 29.97 845 24.95 9.2 48.6 35 -5.6 21.9
15:00 1016 30 845 24.95 9.5 49.2 30 -7 19.3
15:05 1016 30 845 24.95 9.6 49.3 31 -6.5 20.2
15:10 1016 30 845 24.95 9.3 48.7 37 -4.7 23.5
15:15 1016 30 845 24.95 8.7 47.7 34 -6.1 21.1
15:20 1016 30 845 24.95 9.2 48.5 33 -6.2 20.9
15:25 1016 30 845 24.95 9.5 49 32 -6.6 20.2
15:30 1016 30 845 24.95 9.5 49.1 27 -8.8 16.2
15:35 1016 30 845 24.95 9.5 49.1 27 -8.7 16.4
15:40 1016 30 845 24.95 9.5 49.1 27 -8.6 16.5
15:45 1016 30 845 24.95 9.9 49.9 28 -7.9 17.7
15:50 1016 30 845 24.95 10 49.9 28 -7.6 18.4
15:55 1016 30 845 24.95 10 50.1 29 -7.2 19
16:00 1016 30 845 24.95 10.2 50.4 29 -7.2 19
16:05 1016 30 845 24.95 9.6 49.3 29 -7.6 18.3
16:10 1016 30 845 24.95 9.4 48.8 29 -7.7 18.2
16:15 1016 30 845 24.95 9.9 49.7 27 -8 17.5
16:20 1016 30 845 24.95 10 50 26 -8.9 16
16:25 1016 30 845 24.95 10.1 50.1 25 -9 15.9
16:30 1016 30 845 24.95 10.2 50.4 25 -8.8 16.1
16:35 1016 30 845 24.95 10 50 26 -8.4 16.8
16:40 1016 30 845 24.95 9.8 49.7 26 -8.8 16.2
16:45 1016 30 845 24.95 10.1 50.2 26 -8.6 16.4
16:50 1016 30 845 24.95 9.8 49.6 27 -8.3 17.1
16:55 1016 30 845 24.95 9.4 49 27 -8.7 16.4
17:00 1016 30 845 24.95 9.4 48.8 27 -8.7 16.4
17:05 1016 30 845 24.95 9.3 48.7 28 -8.5 16.7
17:10 1016 30 846 24.98 9.4 48.8 29 -7.9 17.8
17:15 1016 30 846 24.98 9.4 48.9 26 -9.1 15.6
17:20 1016 30 846 24.98 8.9 48 27 -9.2 15.4
17:25 1017 30.03 846 24.98 8.6 47.5 28 -9.1 15.6
17:30 1017 30.03 846 24.98 8.5 47.4 28 -8.8 16.2
17:35 1017 30.03 846 24.98 8.5 47.4 29 -8.4 17
17:40 1017 30.03 846 24.98 8.5 47.3 29 -8.3 17
17:45 1017 30.03 846 24.98 8.4 47.2 31 -7.9 17.7
17:50 1017 30.03 846 24.98 8.3 46.9 32 -7.6 18.4
17:55 1017 30.03 846 24.98 8.1 46.5 31 -8 17.6
18:00 1017 30.03 846 24.98 7.9 46.2 31 -8 17.5
18:05 1017 30.03 846 24.98 7.8 46 30 -8.5 16.6
18:10 1017 30.03 847 25.01 7.7 45.8 31 -8.4 16.9
18:15 1018 30.06 847 25.01 7.6 45.7 31 -8.3 17.1
18:20 1018 30.06 847 25.01 7.6 45.6 32 -8.3 17.1
18:25 1018 30.06 847 25.01 7.4 45.3 32 -8.3 17.1
18:30 1018 30.06 847 25.01 7.3 45.1 31 -8.7 16.4
18:35 1018 30.06 847 25.01 7.2 44.9 31 -8.8 16.2
18:40 1018 30.06 847 25.01 7.1 44.8 31 -9.1 15.6
18:45 1018 30.06 847 25.01 7 44.6 30 -9.4 15
18:50 1018 30.06 847 25.01 6.9 44.4 31 -9.3 15.3
18:55 1018 30.06 848 25.04 6.7 44.1 31 -9.2 15.5
19:00 1018 30.06 848 25.04 6.6 43.8 32 -9 15.9
19:05 1018 30.06 848 25.04 6.4 43.5 33 -8.9 15.9
19:10 1019 30.09 848 25.04 6.2 43.1 33 -8.9 16
19:15 1019 30.09 848 25.04 6 42.8 34 -8.8 16.2
19:20 1019 30.09 848 25.04 5.8 42.5 35 -8.5 16.7
19:25 1019 30.09 848 25.04 5.6 42.1 35 -8.6 16.6
19:30 1019 30.09 848 25.04 5.5 41.9 36 -8.6 16.6
19:35 1019 30.09 848 25.04 5.5 41.8 36 -8.5 16.7
19:40 1019 30.09 849 25.07 5.4 41.6 36 -8.4 16.9
19:45 1019 30.09 849 25.07 5.3 41.5 37 -8.4 16.9
19:50 1020 30.12 849 25.07 5.2 41.4 37 -8.2 17.2
19:55 1020 30.12 849 25.07 5.1 41.2 38 -8.1 17.4
20:00 1020 30.12 849 25.07 5 41 38 -8 17.6
20:05 1020 30.12 849 25.07 4.9 40.8 39 -8 17.6
20:10 1020 30.12 849 25.07 4.8 40.6 39 -8.1 17.3
20:15 1020 30.12 849 25.07 4.8 40.6 39 -8.2 17.3
20:20 1020 30.12 849 25.07 4.7 40.5 40 -7.9 17.8
20:25 1020 30.12 849 25.07 4.6 40.3 40 -7.8 18
20:30 1020 30.12 849 25.07 4.4 40 42 -7.5 18.5
20:35 1020 30.12 849 25.07 4.2 39.5 42 -7.5 18.4
20:40 1020 30.12 850 25.1 4.1 39.3 43 -7.5 18.6
20:45 1020 30.12 850 25.1 4 39.2 43 -7.4 18.7
20:50 1020 30.12 850 25.1 4 39.1 45 -7.1 19.3
20:55 1021 30.15 850 25.1 3.7 38.6 45 -7.2 19.1
21:00 1021 30.15 850 25.1 3.8 38.9 43 -7.7 18.2
21:05 1021 30.15 850 25.1 4.2 39.6 42 -7.5 18.6
21:10 1021 30.15 850 25.1 4.3 39.8 43 -7.2 19.1
21:15 1021 30.15 850 25.1 4.2 39.6 43 -7.2 19.1
21:20 1021 30.15 850 25.1 4 39.2 45 -6.8 19.7
21:25 1021 30.15 850 25.1 3.8 38.9 46 -6.7 19.9
21:30 1021 30.15 850 25.1 3.7 38.6 46 -6.9 19.5
21:35 1021 30.15 850 25.1 3.8 38.8 46 -6.9 19.5
21:40 1021 30.15 850 25.1 3.8 38.9 46 -6.8 19.7
21:45 1021 30.15 851 25.13 3.9 39 45 -6.9 19.5
21:50 1021 30.15 851 25.13 3.9 39 46 -6.8 19.7
21:55 1022 30.18 851 25.13 3.9 39 46 -6.7 20
22:00 1022 30.18 851 25.13 3.8 38.9 46 -6.6 20.1
22:05 1022 30.18 851 25.13 3.8 38.8 47 -6.5 20.2
22:10 1022 30.18 851 25.13 3.7 38.6 47 -6.7 20
22:15 1022 30.18 851 25.13 3.7 38.6 46 -6.9 19.7
22:20 1022 30.18 851 25.13 3.7 38.7 46 -6.8 19.8
22:25 1022 30.18 851 25.13 3.8 38.8 45 -7.1 19.3
22:30 1022 30.18 851 25.13 3.9 39 46 -6.8 19.8
22:35 1022 30.18 851 25.13 4 39.3 44 -7.1 19.2
22:40 1022 30.18 851 25.13 4.2 39.6 43 -7.3 18.9
22:45 1022 30.18 851 25.13 4.6 40.2 43 -7 19.4
22:50 1022 30.18 851 25.13 4.6 40.3 44 -6.7 20
22:55 1022 30.18 851 25.13 4.6 40.3 45 -6.4 20.5
23:00 1022 30.18 851 25.13 4.6 40.2 45 -6.2 20.8
23:05 1022 30.18 851 25.13 4.5 40.1 46 -6.1 21.1
23:10 1022 30.18 851 25.13 4.5 40 47 -6 21.3
23:15 1022 30.18 851 25.13 4.4 39.9 47 -5.9 21.4
23:20 1022 30.18 851 25.13 4.3 39.8 48 -5.8 21.5
23:25 1022 30.18 851 25.13 4.3 39.7 48 -5.8 21.6
23:30 1022 30.18 851 25.13 4.3 39.7 49 -5.6 21.8
23:35 1022 30.18 851 25.13 4.2 39.6 48 -5.7 21.7
23:40 1022 30.18 851 25.13 4.2 39.5 49 -5.5 22.1
23:45 1022 30.18 851 25.13 4 39.2 50 -5.4 22.2
23:50 1022 30.18 852 25.16 3.9 39 50 -5.6 21.9
23:55 1022 30.18 852 25.16 3.9 38.9 50 -5.5 22
24:00 1022 30.18 852 25.16 3.8 38.9 50 -5.6 21.9